createdAt,value
2022-10-28T00:01:27.158Z,11.85
2022-10-28T00:03:57.254Z,11.84
2022-10-28T00:06:27.327Z,11.86
2022-10-28T00:08:55.626Z,11.90
2022-10-28T00:11:25.906Z,11.85
2022-10-28T00:13:56.428Z,11.89
2022-10-28T00:16:26.931Z,11.82
2022-10-28T00:18:55.883Z,11.81
2022-10-28T00:21:26.741Z,11.77
2022-10-28T00:23:55.387Z,11.74
2022-10-28T00:26:26.007Z,11.76
2022-10-28T00:28:57.068Z,11.71
2022-10-28T00:31:27.115Z,11.67
2022-10-28T00:33:55.929Z,11.63
2022-10-28T00:36:26.759Z,11.63
2022-10-28T00:38:56.732Z,11.66
2022-10-28T00:41:27.513Z,11.62
2022-10-28T00:43:59.005Z,11.63
2022-10-28T00:46:31.320Z,11.63
2022-10-28T00:49:04.085Z,11.63
2022-10-28T00:51:34.519Z,11.60
2022-10-28T00:54:04.311Z,11.56
2022-10-28T00:56:38.064Z,11.57
2022-10-28T00:59:14.360Z,11.56
2022-10-28T01:01:42.480Z,11.59
2022-10-28T01:04:10.644Z,11.62
2022-10-28T01:06:39.201Z,11.60
2022-10-28T01:09:07.170Z,11.53
2022-10-28T01:11:52.640Z,11.50
2022-10-28T01:14:32.443Z,11.45
2022-10-28T01:17:13.876Z,11.44
2022-10-28T01:20:04.663Z,11.46
2022-10-28T01:22:38.955Z,11.46
2022-10-28T01:25:31.658Z,11.45
2022-10-28T01:28:18.056Z,11.46
2022-10-28T01:31:13.819Z,11.49
2022-10-28T01:33:47.725Z,11.45
2022-10-28T01:36:20.341Z,11.46
2022-10-28T01:38:51.843Z,11.41
2022-10-28T01:41:29.235Z,11.40
2022-10-28T01:44:03.210Z,11.40
2022-10-28T01:46:41.337Z,11.40
2022-10-28T01:49:14.643Z,11.46
2022-10-28T01:51:47.523Z,11.44
2022-10-28T01:54:19.608Z,11.41
2022-10-28T01:56:49.368Z,11.42
2022-10-28T01:59:22.159Z,11.35
2022-10-28T02:01:51.922Z,11.36
2022-10-28T02:04:19.986Z,11.35
2022-10-28T02:06:51.059Z,11.33
2022-10-28T02:09:30.482Z,11.36
2022-10-28T02:12:16.122Z,11.34
2022-10-28T02:15:00.153Z,11.33
2022-10-28T02:17:39.628Z,11.33
2022-10-28T02:20:16.315Z,11.33
2022-10-28T02:22:51.084Z,11.28
2022-10-28T02:25:22.680Z,11.25
2022-10-28T02:27:57.475Z,11.27
2022-10-28T02:30:30.602Z,11.25
2022-10-28T02:33:02.055Z,11.27
2022-10-28T02:35:34.590Z,11.25
2022-10-28T02:38:08.297Z,11.26
2022-10-28T02:40:38.735Z,11.29
2022-10-28T02:43:10.417Z,11.27
2022-10-28T02:45:41.972Z,11.28
2022-10-28T02:48:14.082Z,11.29
2022-10-28T02:50:48.399Z,11.28
2022-10-28T02:53:20.326Z,11.28
2022-10-28T02:55:53.594Z,11.26
2022-10-28T02:58:21.889Z,11.26
2022-10-28T03:00:50.197Z,11.22
2022-10-28T03:03:19.571Z,11.19
2022-10-28T03:05:47.562Z,11.20
2022-10-28T03:08:15.574Z,11.22
2022-10-28T03:10:43.518Z,11.19
2022-10-28T03:13:11.507Z,11.26
2022-10-28T03:15:39.556Z,11.28
2022-10-28T03:18:07.631Z,11.24
2022-10-28T03:20:36.983Z,11.22
2022-10-28T03:23:04.991Z,11.21
2022-10-28T03:25:32.992Z,11.21
2022-10-28T03:28:01.054Z,11.13
2022-10-28T03:30:29.084Z,11.16
2022-10-28T03:32:57.260Z,11.18
2022-10-28T03:35:25.992Z,11.09
2022-10-28T03:37:55.363Z,11.11
2022-10-28T03:40:23.381Z,11.10
2022-10-28T03:42:51.563Z,11.09
2022-10-28T03:45:19.864Z,11.10
2022-10-28T03:47:47.897Z,11.10
2022-10-28T03:50:16.033Z,11.11
2022-10-28T03:52:45.044Z,11.11
2022-10-28T03:55:14.462Z,11.16
2022-10-28T03:57:42.492Z,11.15
2022-10-28T04:00:11.329Z,11.14
2022-10-28T04:02:39.311Z,11.07
2022-10-28T04:05:07.708Z,11.10
2022-10-28T04:07:36.275Z,11.09
2022-10-28T04:10:04.448Z,11.10
2022-10-28T04:12:33.840Z,11.11
2022-10-28T04:15:01.850Z,11.10
2022-10-28T04:17:30.132Z,11.10
2022-10-28T04:19:58.155Z,11.14
2022-10-28T04:22:26.188Z,11.17
2022-10-28T04:24:54.805Z,11.16
2022-10-28T04:27:22.808Z,11.11
2022-10-28T04:29:52.207Z,11.12
2022-10-28T04:32:20.153Z,11.07
2022-10-28T04:34:48.160Z,11.00
2022-10-28T04:37:20.433Z,11.02
2022-10-28T04:39:48.763Z,10.97
2022-10-28T04:42:16.716Z,11.01
2022-10-28T04:44:44.719Z,11.00
2022-10-28T04:47:14.070Z,10.98
2022-10-28T04:49:42.039Z,10.99
2022-10-28T04:52:13.400Z,11.04
2022-10-28T04:54:44.197Z,11.10
2022-10-28T04:57:12.202Z,11.09
2022-10-28T04:59:40.231Z,11.06
2022-10-28T05:02:08.432Z,11.06
2022-10-28T05:04:37.851Z,11.10
2022-10-28T05:07:05.863Z,11.09
2022-10-28T05:09:33.850Z,11.04
2022-10-28T05:12:01.875Z,10.94
2022-10-28T05:14:29.835Z,10.89
2022-10-28T05:16:57.873Z,10.87
2022-10-28T05:19:25.871Z,10.87
2022-10-28T05:21:55.223Z,10.85
2022-10-28T05:24:23.239Z,10.78
2022-10-28T05:26:51.265Z,10.73
2022-10-28T05:29:19.757Z,10.75
2022-10-28T05:31:48.123Z,10.72
2022-10-28T05:34:16.087Z,10.75
2022-10-28T05:36:44.113Z,10.76
2022-10-28T05:39:13.993Z,10.81
2022-10-28T05:41:42.327Z,10.76
2022-10-28T05:44:10.369Z,10.77
2022-10-28T05:46:38.399Z,10.81
2022-10-28T05:49:06.418Z,10.77
2022-10-28T05:51:34.453Z,10.82
2022-10-28T05:54:02.444Z,10.83
2022-10-28T05:56:31.863Z,10.78
2022-10-28T05:58:59.879Z,10.80
2022-10-28T06:01:27.905Z,10.82
2022-10-28T06:03:56.076Z,10.84
2022-10-28T06:06:24.127Z,10.85
2022-10-28T06:08:52.135Z,10.81
2022-10-28T06:11:18.565Z,10.83
2022-10-28T06:13:48.010Z,10.81
2022-10-28T06:16:15.988Z,10.83
2022-10-28T06:18:43.983Z,10.80
2022-10-28T06:21:12.093Z,10.81
2022-10-28T06:23:40.202Z,10.82
2022-10-28T06:26:09.787Z,10.86
2022-10-28T06:28:37.775Z,10.86
2022-10-28T06:31:08.740Z,10.84
2022-10-28T06:33:36.980Z,10.88
2022-10-28T06:36:05.499Z,10.89
2022-10-28T06:38:33.524Z,10.86
2022-10-28T06:41:01.513Z,10.84
2022-10-28T06:43:29.546Z,10.82
2022-10-28T06:46:01.153Z,10.86
2022-10-28T06:48:32.299Z,10.90
2022-10-28T06:51:00.331Z,10.87
2022-10-28T06:53:28.326Z,10.95
2022-10-28T06:55:57.463Z,10.91
2022-10-28T06:58:26.030Z,10.91
2022-10-28T07:00:54.409Z,10.92
2022-10-28T07:03:22.812Z,10.93
2022-10-28T07:05:52.274Z,10.94
2022-10-28T07:08:20.390Z,10.95
2022-10-28T07:10:56.386Z,11.03
2022-10-28T07:13:24.507Z,10.99
2022-10-28T07:15:53.661Z,10.99
2022-10-28T07:18:22.051Z,10.98
2022-10-28T07:20:51.500Z,10.97
2022-10-28T07:23:19.966Z,11.00
2022-10-28T07:28:27.555Z,11.08
2022-10-28T07:30:56.285Z,11.11
2022-10-28T07:33:24.398Z,11.16
2022-10-28T07:35:53.800Z,11.16
2022-10-28T07:38:22.641Z,11.19
2022-10-28T07:40:50.662Z,11.25
2022-10-28T07:43:18.653Z,11.25
2022-10-28T07:45:46.668Z,11.28
2022-10-28T07:48:14.905Z,11.21
2022-10-28T07:50:43.247Z,11.31
2022-10-28T07:53:12.744Z,11.30
2022-10-28T07:55:40.728Z,11.33
2022-10-28T07:58:08.686Z,11.35
2022-10-28T08:00:36.758Z,11.44
2022-10-28T08:03:04.784Z,11.32
2022-10-28T08:05:32.777Z,11.34
2022-10-28T08:08:00.757Z,11.37
2022-10-28T08:10:30.109Z,11.48
2022-10-28T08:12:59.065Z,11.46
2022-10-28T08:15:27.484Z,11.57
2022-10-28T08:17:56.276Z,11.58
2022-10-28T08:20:24.897Z,11.67
2022-10-28T08:22:57.402Z,11.73
2022-10-28T08:25:25.299Z,11.86
2022-10-28T08:27:54.646Z,11.91
2022-10-28T08:30:22.599Z,11.90
2022-10-28T08:32:50.625Z,12.03
2022-10-28T08:35:18.625Z,12.05
2022-10-28T08:37:53.021Z,12.10
2022-10-28T08:40:26.862Z,12.07
2022-10-28T08:43:02.819Z,12.05
2022-10-28T08:45:44.358Z,12.08
2022-10-28T08:48:22.552Z,12.04
2022-10-28T08:50:54.363Z,11.98
2022-10-28T08:53:28.816Z,12.01
2022-10-28T08:56:01.981Z,12.02
2022-10-28T08:58:35.486Z,11.97
2022-10-28T09:01:11.659Z,12.02
2022-10-28T09:03:43.268Z,12.07
2022-10-28T09:06:18.657Z,12.00
2022-10-28T09:08:49.681Z,11.96
2022-10-28T09:11:40.056Z,12.08
2022-10-28T09:14:20.792Z,12.17
2022-10-28T09:16:50.301Z,12.19
2022-10-28T09:19:37.113Z,12.24
2022-10-28T09:22:20.694Z,12.26
2022-10-28T09:24:53.895Z,12.28
2022-10-28T09:27:32.073Z,12.30
2022-10-28T09:30:16.418Z,12.35
2022-10-28T09:32:56.840Z,12.33
2022-10-28T09:35:28.063Z,12.33
2022-10-28T09:38:12.427Z,12.33
2022-10-28T09:40:44.392Z,12.37
2022-10-28T09:43:21.568Z,12.40
2022-10-28T09:45:53.325Z,12.29
2022-10-28T09:48:26.378Z,12.26
2022-10-28T09:50:58.276Z,12.18
2022-10-28T09:53:36.957Z,12.12
2022-10-28T09:58:35.615Z,12.18
2022-10-28T10:01:05.998Z,12.25
2022-10-28T10:03:34.185Z,12.30
2022-10-28T10:06:12.728Z,12.37
2022-10-28T10:08:42.219Z,12.29
2022-10-28T10:11:27.376Z,12.08
2022-10-28T10:13:58.923Z,12.03
2022-10-28T10:16:42.137Z,12.08
2022-10-28T10:19:12.117Z,12.14
2022-10-28T10:21:45.655Z,12.23
2022-10-28T10:24:24.452Z,12.33
2022-10-28T10:26:53.208Z,12.40
2022-10-28T10:29:22.666Z,12.40
2022-10-28T10:32:06.472Z,12.43
2022-10-28T10:34:34.846Z,12.50
2022-10-28T10:39:40.214Z,12.50
2022-10-28T10:42:17.797Z,12.59
2022-10-28T10:44:46.381Z,12.52
2022-10-28T10:47:22.843Z,12.57
2022-10-28T10:49:52.175Z,12.57
2022-10-28T10:52:26.203Z,12.61
2022-10-28T10:55:04.547Z,12.64
2022-10-28T10:57:33.710Z,12.56
2022-10-28T11:00:02.359Z,12.65
2022-10-28T11:02:35.131Z,12.47
2022-10-28T11:05:05.492Z,12.51
2022-10-28T11:07:34.336Z,12.51
2022-10-28T11:10:03.291Z,12.41
2022-10-28T11:12:35.371Z,12.47
2022-10-28T11:15:05.550Z,12.45
2022-10-28T11:17:35.888Z,12.37
2022-10-28T11:20:25.119Z,12.39
2022-10-28T11:23:05.401Z,12.34
2022-10-28T11:25:39.434Z,12.31
2022-10-28T11:28:54.431Z,12.31
2022-10-28T11:31:44.572Z,12.33
2022-10-28T11:34:32.682Z,12.36
2022-10-28T11:37:11.694Z,12.49
2022-10-28T11:39:49.184Z,12.34
2022-10-28T11:42:27.090Z,12.39
2022-10-28T11:45:00.250Z,12.40
2022-10-28T11:47:44.769Z,12.34
2022-10-28T11:50:27.253Z,12.28
2022-10-28T11:53:22.460Z,12.25
2022-10-28T11:55:58.634Z,12.23
2022-10-28T11:58:38.725Z,12.22
2022-10-28T12:01:22.059Z,12.29
2022-10-28T12:04:09.870Z,12.39
2022-10-28T12:07:00.036Z,12.44
2022-10-28T12:09:39.739Z,12.44
2022-10-28T12:12:17.370Z,12.37
2022-10-28T12:14:52.391Z,12.44
2022-10-28T12:17:29.542Z,12.52
2022-10-28T12:20:04.690Z,12.60
2022-10-28T12:22:41.454Z,12.65
2022-10-28T12:25:18.279Z,12.70
2022-10-28T12:27:52.352Z,12.76
2022-10-28T12:30:24.874Z,12.80
2022-10-28T12:32:59.172Z,12.76
2022-10-28T12:35:32.572Z,12.77
2022-10-28T12:38:09.399Z,12.79
2022-10-28T12:40:43.926Z,12.71
2022-10-28T12:43:17.147Z,12.79
2022-10-28T12:45:50.143Z,12.75
2022-10-28T12:48:25.358Z,12.72
2022-10-28T12:50:57.802Z,12.66
2022-10-28T12:53:36.679Z,12.53
2022-10-28T12:56:12.429Z,12.51
2022-10-28T12:58:56.245Z,12.59
2022-10-28T13:01:28.772Z,12.63
2022-10-28T13:03:56.762Z,12.60
2022-10-28T13:06:44.892Z,12.64
2022-10-28T13:09:33.286Z,12.70
2022-10-28T13:12:28.292Z,12.68
2022-10-28T13:15:26.927Z,12.58
2022-10-28T13:18:09.300Z,12.52
2022-10-28T13:20:47.659Z,12.53
2022-10-28T13:23:30.474Z,12.55
2022-10-28T13:26:07.228Z,12.50
2022-10-28T13:28:37.755Z,12.51
2022-10-28T13:31:08.457Z,12.52
2022-10-28T13:33:38.443Z,12.42
2022-10-28T13:36:17.543Z,12.48
2022-10-28T13:38:52.452Z,12.49
2022-10-28T13:41:36.822Z,12.48
2022-10-28T13:44:29.153Z,12.48
2022-10-28T13:47:26.122Z,12.43
2022-10-28T13:50:34.351Z,12.48
2022-10-28T13:53:42.889Z,12.42
2022-10-28T13:56:46.647Z,12.37
2022-10-28T13:59:24.448Z,12.36
2022-10-28T14:02:45.149Z,12.33
2022-10-28T14:05:08.530Z,12.31
2022-10-28T14:07:39.457Z,12.28
2022-10-28T14:10:21.201Z,12.21
2022-10-28T14:12:53.991Z,12.23
2022-10-28T14:15:32.742Z,12.26
2022-10-28T14:18:15.980Z,12.22
2022-10-28T14:21:00.886Z,12.26
2022-10-28T14:23:51.845Z,12.26
2022-10-28T14:26:19.851Z,12.14
2022-10-28T14:28:53.103Z,12.10
2022-10-28T14:31:36.966Z,12.03
2022-10-28T14:34:40.565Z,12.03
2022-10-28T14:37:41.344Z,12.07
2022-10-28T14:40:23.686Z,12.03
2022-10-28T14:43:19.305Z,11.99
2022-10-28T14:45:59.838Z,11.96
2022-10-28T14:48:45.737Z,12.00
2022-10-28T14:51:16.732Z,11.88
2022-10-28T14:53:46.934Z,11.88
2022-10-28T14:58:59.366Z,11.85
2022-10-28T15:01:29.658Z,11.87
2022-10-28T15:04:04.177Z,11.88
2022-10-28T15:06:41.841Z,11.82
2022-10-28T15:09:20.198Z,11.80
2022-10-28T15:11:53.401Z,11.81
2022-10-28T15:14:27.845Z,11.81
2022-10-28T15:16:56.387Z,11.82
2022-10-28T15:19:29.236Z,11.79
2022-10-28T15:22:07.415Z,11.76
2022-10-28T15:24:35.723Z,11.72
2022-10-28T15:27:03.766Z,11.69
2022-10-28T15:29:32.500Z,11.71
2022-10-28T15:32:08.909Z,11.71
2022-10-28T15:34:38.283Z,11.68
2022-10-28T15:37:07.004Z,11.68
2022-10-28T15:39:35.646Z,11.66
2022-10-28T15:42:03.952Z,11.66
2022-10-28T15:44:35.116Z,11.64
2022-10-28T15:47:19.830Z,11.62
2022-10-28T15:50:04.037Z,11.63
2022-10-28T15:52:35.242Z,11.64
2022-10-28T15:55:05.134Z,11.62
2022-10-28T15:57:48.500Z,11.61
2022-10-28T16:00:22.021Z,11.60
2022-10-28T16:02:56.219Z,11.60
2022-10-28T16:05:56.701Z,11.60
2022-10-28T16:08:27.930Z,11.59
2022-10-28T16:10:58.955Z,11.59
2022-10-28T16:13:34.572Z,11.57
2022-10-28T16:16:05.865Z,11.55
2022-10-28T16:18:43.600Z,11.45
2022-10-28T16:21:21.136Z,11.45
2022-10-28T16:23:56.410Z,11.44
2022-10-28T16:26:24.659Z,11.46
2022-10-28T16:28:53.189Z,11.45
2022-10-28T16:31:24.765Z,11.46
2022-10-28T16:33:53.114Z,11.46
2022-10-28T16:36:22.498Z,11.49
2022-10-28T16:38:50.707Z,11.49
2022-10-28T16:41:20.284Z,11.47
2022-10-28T16:43:48.513Z,11.48
2022-10-28T16:46:16.593Z,11.43
2022-10-28T16:48:44.702Z,11.38
2022-10-28T16:51:16.236Z,11.40
2022-10-28T16:53:47.434Z,11.36
2022-10-28T16:56:16.588Z,11.37
2022-10-28T16:58:45.536Z,11.40
2022-10-28T17:01:19.475Z,11.41
2022-10-28T17:03:47.702Z,11.42
2022-10-28T17:06:16.018Z,11.43
2022-10-28T17:11:33.591Z,11.47
2022-10-28T17:14:01.703Z,11.48
2022-10-28T17:16:29.811Z,11.47
2022-10-28T17:18:57.831Z,11.51
2022-10-28T17:21:27.781Z,11.51
2022-10-28T17:23:57.216Z,11.54
2022-10-28T17:26:25.229Z,11.53
2022-10-28T17:28:53.809Z,11.55
2022-10-28T17:31:25.071Z,11.48
2022-10-28T17:33:57.162Z,11.43
2022-10-28T17:36:26.107Z,11.43
2022-10-28T17:38:58.032Z,11.44
2022-10-28T17:41:27.915Z,11.47
2022-10-28T17:43:56.415Z,11.48
2022-10-28T17:46:24.693Z,11.51
2022-10-28T17:48:52.924Z,11.50
2022-10-28T17:51:22.844Z,11.45
2022-10-28T17:53:55.665Z,11.45
2022-10-28T17:56:24.312Z,11.47
2022-10-28T17:58:55.049Z,11.45
2022-10-28T18:01:23.176Z,11.48
2022-10-28T18:03:51.957Z,11.44
2022-10-28T18:06:20.015Z,11.43
2022-10-28T18:11:22.111Z,11.44
2022-10-28T18:13:53.015Z,11.45
2022-10-28T18:16:24.447Z,11.46
2022-10-28T18:18:54.168Z,11.48
2022-10-28T18:21:23.522Z,11.46
2022-10-28T18:24:04.274Z,11.47
2022-10-28T18:26:33.281Z,11.50
2022-10-28T18:29:04.965Z,11.52
2022-10-28T18:31:35.250Z,11.55
2022-10-28T18:34:03.687Z,11.55
2022-10-28T18:36:34.895Z,11.51
2022-10-28T18:39:04.178Z,11.54
2022-10-28T18:41:33.596Z,11.56
2022-10-28T18:44:04.282Z,11.54
2022-10-28T18:46:37.846Z,11.53
2022-10-28T18:49:06.642Z,11.54
2022-10-28T18:51:35.822Z,11.52
2022-10-28T18:54:04.240Z,11.48
2022-10-28T18:56:41.651Z,11.46
2022-10-28T18:59:12.930Z,11.46
2022-10-28T19:01:46.807Z,11.48
2022-10-28T19:04:15.730Z,11.43
2022-10-28T19:06:44.152Z,11.45
2022-10-28T19:09:12.442Z,11.47
2022-10-28T19:11:41.087Z,11.46
2022-10-28T19:14:10.107Z,11.42
2022-10-28T19:16:38.111Z,11.38
2022-10-28T19:19:07.514Z,11.42
2022-10-28T19:21:40.033Z,11.44
2022-10-28T19:24:08.698Z,11.45
2022-10-28T19:26:37.040Z,11.45
2022-10-28T19:29:06.387Z,11.46
2022-10-28T19:31:40.821Z,11.48
2022-10-28T19:34:11.596Z,11.47
2022-10-28T19:36:42.008Z,11.42
2022-10-28T19:39:10.379Z,11.40
2022-10-28T19:41:38.702Z,11.37
2022-10-28T19:44:07.172Z,11.39
2022-10-28T19:46:37.452Z,11.37
2022-10-28T19:49:09.655Z,11.40
2022-10-28T19:51:41.699Z,11.37
2022-10-28T19:54:14.729Z,11.41
2022-10-28T19:56:55.684Z,11.42
2022-10-28T19:59:23.744Z,11.37
2022-10-28T20:01:53.749Z,11.36
2022-10-28T20:04:22.171Z,11.35
2022-10-28T20:06:53.921Z,11.36
2022-10-28T20:09:26.351Z,11.37
2022-10-28T20:11:56.347Z,11.35
2022-10-28T20:14:24.535Z,11.38
2022-10-28T20:16:52.866Z,11.35
2022-10-28T20:19:20.934Z,11.37
2022-10-28T20:21:50.392Z,11.41
2022-10-28T20:24:20.524Z,11.44
2022-10-28T20:26:48.597Z,11.41
2022-10-28T20:29:16.575Z,11.37
2022-10-28T20:31:45.109Z,11.36
2022-10-28T20:34:13.245Z,11.36
2022-10-28T20:36:44.159Z,11.35
2022-10-28T20:39:14.800Z,11.36
2022-10-28T20:41:45.897Z,11.32
2022-10-28T20:44:14.271Z,11.35
2022-10-28T20:46:42.424Z,11.36
2022-10-28T20:49:10.710Z,11.35
2022-10-28T20:51:38.743Z,11.38
2022-10-28T20:54:07.012Z,11.38
2022-10-28T20:56:37.452Z,11.39
2022-10-28T20:59:07.422Z,11.43
2022-10-28T21:01:37.415Z,11.45
2022-10-28T21:04:07.422Z,11.45
2022-10-28T21:06:35.540Z,11.41
2022-10-28T21:09:05.234Z,11.34
2022-10-28T21:11:33.353Z,11.33
2022-10-28T21:14:02.398Z,11.35
2022-10-28T21:16:32.021Z,11.36
2022-10-28T21:19:00.577Z,11.39
2022-10-28T21:21:30.487Z,11.35
2022-10-28T21:23:58.576Z,11.34
2022-10-28T21:26:27.301Z,11.28
2022-10-28T21:28:56.530Z,11.27
2022-10-28T21:31:24.991Z,11.25
2022-10-28T21:33:54.426Z,11.24
2022-10-28T21:36:23.178Z,11.26
2022-10-28T21:38:54.371Z,11.30
2022-10-28T21:41:22.637Z,11.32
2022-10-28T21:43:52.039Z,11.31
2022-10-28T21:46:21.617Z,11.30
2022-10-28T21:48:49.671Z,11.28
2022-10-28T21:51:20.154Z,11.32
2022-10-28T21:53:48.145Z,11.31
2022-10-28T21:56:19.250Z,11.34
2022-10-28T21:58:48.648Z,11.30
2022-10-28T22:01:18.981Z,11.34
2022-10-28T22:03:47.268Z,11.36
2022-10-28T22:06:15.620Z,11.35
2022-10-28T22:08:45.190Z,11.37
2022-10-28T22:11:14.988Z,11.35
2022-10-28T22:13:43.107Z,11.35
2022-10-28T22:16:13.140Z,11.36
2022-10-28T22:18:41.349Z,11.39
2022-10-28T22:21:11.910Z,11.40
2022-10-28T22:23:40.060Z,11.43
2022-10-28T22:26:11.429Z,11.45
2022-10-28T22:28:39.866Z,11.45
2022-10-28T22:31:09.681Z,11.44
2022-10-28T22:33:38.185Z,11.41
2022-10-28T22:36:08.189Z,11.40
2022-10-28T22:38:36.345Z,11.41
2022-10-28T22:41:05.339Z,11.43
2022-10-28T22:43:34.872Z,11.46
2022-10-28T22:46:03.224Z,11.43
2022-10-28T22:48:31.928Z,11.41
2022-10-28T22:51:00.754Z,11.44
2022-10-28T22:53:28.827Z,11.46
2022-10-28T22:55:57.690Z,11.44
2022-10-28T22:58:27.810Z,11.40
2022-10-28T23:01:09.274Z,11.41
2022-10-28T23:03:38.828Z,11.41
2022-10-28T23:06:07.836Z,11.40
2022-10-28T23:08:35.855Z,11.41
2022-10-28T23:11:04.091Z,11.42
2022-10-28T23:13:32.101Z,11.42
2022-10-28T23:16:05.249Z,11.45
2022-10-28T23:18:34.019Z,11.44
2022-10-28T23:21:06.405Z,11.43
2022-10-28T23:23:34.462Z,11.45
2022-10-28T23:26:02.516Z,11.41
2022-10-28T23:28:30.816Z,11.35
2022-10-28T23:31:01.878Z,11.38
2022-10-28T23:33:32.758Z,11.38
2022-10-28T23:36:02.213Z,11.37
2022-10-28T23:38:30.312Z,11.32
2022-10-28T23:41:00.107Z,11.39
2022-10-28T23:43:28.916Z,11.35
2022-10-28T23:45:57.272Z,11.32
2022-10-28T23:48:26.417Z,11.32
2022-10-28T23:50:56.651Z,11.31
2022-10-28T23:53:25.064Z,11.32
2022-10-28T23:55:53.530Z,11.25
2022-10-28T23:58:23.151Z,11.23
